DLH55R EDDH-KDEN
Flight info
| Callsign | DLH55R |
|---|---|
| Flight time | N/A |
| Altitude | 35000 |
| Route | ELSOB3G ELSOB Y348 OMWEG DCT ASMUS DCT INSUS DCT GOLUM/N0484F360 L975 LESRA DCT DOKEN DCT GOMOT DCT PIPAR DCT BRUCE DCT AMLAD DCT PIKIL/M084F380 DCT 5630N02000W 5730N03000W 5830N04000W 5930N05000W DCT URTAK/N0493F380 DCT LAKES DCT 5630N07000W 5330N08000W/N0494F400 4930N09000W DCT KP84A DCT NYTRO AALLE4 |
| Aircraft | A359/H-SDE2E3GHIJ1J3J4J5LM1ORWXY/LB1D1 |
Departure
| Time | N/A |
|---|---|
| Airport | Hamburg Helmut Schmidt Airport (EDDH) |
Arrival
| Time | 2026-05-06 09:39 |
|---|---|
| Airport | Denver International Airport (KDEN) |
| Time | Latitude | Longitude | Altitude | Speed | Heading |
|---|---|---|---|---|---|
| 2026-05-06 09:17 | 39.61556 | -104.68946 | 6612 ft | 149 kts | 0° |
| 2026-05-06 09:18 | 39.62568 | -104.68977 | 6440 ft | 142 kts | 2° |
| 2026-05-06 09:18 | 39.63547 | -104.68987 | 6295 ft | 140 kts | 4° |
| 2026-05-06 09:18 | 39.64525 | -104.68977 | 6143 ft | 140 kts | 2° |
| 2026-05-06 09:18 | 39.65493 | -104.68982 | 6020 ft | 140 kts | 2° |
| 2026-05-06 09:19 | 39.66465 | -104.69025 | 6162 ft | 151 kts | 360° |
| 2026-05-06 09:19 | 39.67589 | -104.69189 | 6820 ft | 169 kts | 354° |
| 2026-05-06 09:19 | 39.68764 | -104.69436 | 7193 ft | 175 kts | 353° |
| 2026-05-06 09:19 | 39.70000 | -104.69727 | 7396 ft | 189 kts | 352° |
| 2026-05-06 09:20 | 39.71335 | -104.70076 | 7707 ft | 201 kts | 351° |
| 2026-05-06 09:20 | 39.72772 | -104.70493 | 7941 ft | 220 kts | 349° |
| 2026-05-06 09:20 | 39.74293 | -104.70986 | 8352 ft | 229 kts | 347° |
| 2026-05-06 09:20 | 39.75320 | -104.71350 | 8499 ft | 232 kts | 345° |
| 2026-05-06 09:21 | 39.77411 | -104.72167 | 9260 ft | 240 kts | 343° |
| 2026-05-06 09:21 | 39.78474 | -104.72625 | 9592 ft | 246 kts | 341° |
| 2026-05-06 09:21 | 39.80723 | -104.73680 | 9994 ft | 272 kts | 339° |
| 2026-05-06 09:21 | 39.82534 | -104.74623 | 10374 ft | 285 kts | 336° |
| 2026-05-06 09:22 | 39.83751 | -104.75309 | 10757 ft | 288 kts | 334° |
| 2026-05-06 09:22 | 39.85426 | -104.76755 | 11389 ft | 290 kts | 313° |
| 2026-05-06 09:22 | 39.86565 | -104.78950 | 11855 ft | 299 kts | 292° |
| 2026-05-06 09:22 | 39.87017 | -104.81670 | 11989 ft | 319 kts | 271° |
| 2026-05-06 09:23 | 39.86686 | -104.84556 | 11986 ft | 330 kts | 252° |
| 2026-05-06 09:23 | 39.85584 | -104.87180 | 11987 ft | 333 kts | 232° |
| 2026-05-06 09:23 | 39.83841 | -104.89166 | 11990 ft | 335 kts | 212° |
| 2026-05-06 09:23 | 39.81673 | -104.90278 | 11969 ft | 338 kts | 194° |
| 2026-05-06 09:24 | 39.79339 | -104.90720 | 11969 ft | 340 kts | 186° |
| 2026-05-06 09:24 | 39.76974 | -104.90859 | 11976 ft | 341 kts | 182° |
| 2026-05-06 09:24 | 39.74595 | -104.90858 | 11960 ft | 341 kts | 181° |
| 2026-05-06 09:24 | 39.72248 | -104.90756 | 11538 ft | 341 kts | 178° |
| 2026-05-06 09:25 | 39.69900 | -104.90606 | 11163 ft | 333 kts | 179° |
| 2026-05-06 09:25 | 39.67610 | -104.90450 | 10998 ft | 328 kts | 179° |
| 2026-05-06 09:25 | 39.65326 | -104.90309 | 10977 ft | 329 kts | 179° |
| 2026-05-06 09:25 | 39.63037 | -104.90163 | 10979 ft | 329 kts | 178° |
| 2026-05-06 09:26 | 39.60751 | -104.90017 | 10980 ft | 329 kts | 179° |
| 2026-05-06 09:26 | 39.58466 | -104.89875 | 10980 ft | 328 kts | 179° |
| 2026-05-06 09:26 | 39.56182 | -104.89725 | 10980 ft | 329 kts | 179° |
| 2026-05-06 09:26 | 39.53922 | -104.89584 | 10979 ft | 329 kts | 179° |
| 2026-05-06 09:27 | 39.51921 | -104.89457 | 10981 ft | 329 kts | 179° |
| 2026-05-06 09:27 | 39.50771 | -104.89383 | 10980 ft | 329 kts | 178° |
| 2026-05-06 09:27 | 39.48478 | -104.89244 | 10979 ft | 329 kts | 179° |
| 2026-05-06 09:27 | 39.46180 | -104.89104 | 10980 ft | 330 kts | 178° |
| 2026-05-06 09:28 | 39.43885 | -104.88964 | 10975 ft | 330 kts | 179° |
| 2026-05-06 09:28 | 39.41596 | -104.88756 | 10974 ft | 331 kts | 172° |
| 2026-05-06 09:28 | 39.39453 | -104.87787 | 10978 ft | 333 kts | 151° |
| 2026-05-06 09:28 | 39.37649 | -104.85868 | 10976 ft | 334 kts | 130° |
| 2026-05-06 09:29 | 39.36441 | -104.83364 | 10970 ft | 332 kts | 117° |
| 2026-05-06 09:29 | 39.35574 | -104.80581 | 10969 ft | 334 kts | 105° |
| 2026-05-06 09:29 | 39.35320 | -104.77611 | 10970 ft | 333 kts | 85° |
| 2026-05-06 09:29 | 39.35900 | -104.74822 | 10971 ft | 313 kts | 62° |
| 2026-05-06 09:30 | 39.37186 | -104.72663 | 10862 ft | 297 kts | 39° |
| 2026-05-06 09:30 | 39.38913 | -104.71356 | 10632 ft | 290 kts | 19° |
| 2026-05-06 09:30 | 39.40872 | -104.70776 | 10384 ft | 288 kts | 7° |
| 2026-05-06 09:30 | 39.42866 | -104.70466 | 10133 ft | 288 kts | 6° |
| 2026-05-06 09:31 | 39.44851 | -104.70194 | 9996 ft | 287 kts | 6° |
| 2026-05-06 09:31 | 39.46844 | -104.69916 | 9977 ft | 287 kts | 6° |
| 2026-05-06 09:31 | 39.48831 | -104.69630 | 9978 ft | 287 kts | 6° |
| 2026-05-06 09:31 | 39.50817 | -104.69339 | 9978 ft | 287 kts | 6° |
| 2026-05-06 09:32 | 39.52779 | -104.69064 | 9975 ft | 287 kts | 5° |
| 2026-05-06 09:32 | 39.54775 | -104.68952 | 9978 ft | 286 kts | 1° |
| 2026-05-06 09:32 | 39.56770 | -104.68956 | 9978 ft | 286 kts | 359° |
| 2026-05-06 09:32 | 39.58760 | -104.68978 | 9970 ft | 286 kts | 359° |
| 2026-05-06 09:33 | 39.60734 | -104.68962 | 9725 ft | 281 kts | 1° |
| 2026-05-06 09:33 | 39.62659 | -104.68917 | 9291 ft | 276 kts | 1° |
| 2026-05-06 09:33 | 39.64519 | -104.68878 | 9002 ft | 257 kts | 1° |
| 2026-05-06 09:33 | 39.66253 | -104.68862 | 8736 ft | 241 kts | 1° |
| 2026-05-06 09:34 | 39.67875 | -104.68863 | 8532 ft | 225 kts | 1° |
| 2026-05-06 09:34 | 39.69383 | -104.68873 | 8349 ft | 207 kts | 1° |
| 2026-05-06 09:34 | 39.70758 | -104.68881 | 8194 ft | 187 kts | 2° |
| 2026-05-06 09:34 | 39.71985 | -104.68880 | 8005 ft | 170 kts | 2° |
| 2026-05-06 09:35 | 39.73130 | -104.68870 | 7782 ft | 158 kts | 3° |
| 2026-05-06 09:35 | 39.74192 | -104.68857 | 7633 ft | 147 kts | 4° |
| 2026-05-06 09:35 | 39.75201 | -104.68842 | 7462 ft | 144 kts | 4° |
| 2026-05-06 09:35 | 39.76205 | -104.68828 | 7297 ft | 144 kts | 4° |
| 2026-05-06 09:36 | 39.77207 | -104.68816 | 7138 ft | 143 kts | 4° |
| 2026-05-06 09:36 | 39.78203 | -104.68806 | 7023 ft | 142 kts | 4° |
| 2026-05-06 09:36 | 39.79197 | -104.68796 | 6944 ft | 144 kts | 3° |
| 2026-05-06 09:36 | 39.80179 | -104.68763 | 6796 ft | 142 kts | 7° |
| 2026-05-06 09:37 | 39.81174 | -104.68743 | 6592 ft | 142 kts | 4° |
| 2026-05-06 09:37 | 39.82153 | -104.68743 | 6353 ft | 141 kts | 5° |
| 2026-05-06 09:37 | 39.83129 | -104.68735 | 6120 ft | 138 kts | 0° |
| 2026-05-06 09:37 | 39.84095 | -104.68710 | 5898 ft | 140 kts | 2° |
| 2026-05-06 09:38 | 39.85076 | -104.68724 | 5708 ft | 139 kts | 1° |
| 2026-05-06 09:38 | 39.86037 | -104.68713 | 5493 ft | 139 kts | 1° |
| 2026-05-06 09:38 | 39.86977 | -104.68714 | 5398 ft | 129 kts | 1° |
| 2026-05-06 09:38 | 39.87760 | -104.68705 | 5383 ft | 85 kts | 0° |
| 2026-05-06 09:39 | 39.88146 | -104.68701 | 5380 ft | 25 kts | 0° |
| 2026-05-06 09:39 | 39.88223 | -104.68695 | 5374 ft | 10 kts | 11° |
| 2026-05-06 09:39 | 39.88309 | -104.68700 | 5371 ft | 15 kts | 3° |
| 2026-05-06 09:39 | 39.88406 | -104.68677 | 5371 ft | 14 kts | 14° |
| 2026-05-06 09:40 | 39.88495 | -104.68642 | 5366 ft | 12 kts | 19° |
| 2026-05-06 09:40 | 39.88559 | -104.68599 | 5367 ft | 8 kts | 30° |
| 2026-05-06 09:40 | 39.88593 | -104.68573 | 5367 ft | 0 kts | 30° |
| 2026-05-06 09:45 | 39.88591 | -104.68574 | 5368 ft | 2 kts | 33° |
| 2026-05-06 09:46 | 39.88580 | -104.68586 | 5367 ft | 0 kts | 62° |
| 2026-05-06 09:48 | 39.88578 | -104.68589 | 5367 ft | 1 kts | 70° |
| 2026-05-06 09:48 | 39.88581 | -104.68530 | 5368 ft | 6 kts | 117° |
| 2026-05-06 09:49 | 39.88549 | -104.68490 | 5368 ft | 9 kts | 152° |
| 2026-05-06 09:49 | 39.88470 | -104.68481 | 5368 ft | 12 kts | 181° |
| 2026-05-06 09:49 | 39.88371 | -104.68484 | 5371 ft | 14 kts | 181° |
| 2026-05-06 09:49 | 39.88273 | -104.68486 | 5375 ft | 16 kts | 180° |
| 2026-05-06 09:50 | 39.88163 | -104.68486 | 5378 ft | 16 kts | 180° |
| 2026-05-06 09:50 | 39.88053 | -104.68487 | 5383 ft | 16 kts | 180° |
| 2026-05-06 09:50 | 39.87947 | -104.68487 | 5386 ft | 15 kts | 180° |
| 2026-05-06 09:50 | 39.87846 | -104.68487 | 5386 ft | 15 kts | 181° |
| 2026-05-06 09:51 | 39.87718 | -104.68492 | 5388 ft | 22 kts | 181° |
| 2026-05-06 09:51 | 39.87565 | -104.68494 | 5385 ft | 22 kts | 180° |
| 2026-05-06 09:51 | 39.87408 | -104.68495 | 5384 ft | 23 kts | 180° |
| 2026-05-06 09:51 | 39.87241 | -104.68496 | 5386 ft | 24 kts | 181° |
| 2026-05-06 09:52 | 39.87080 | -104.68499 | 5387 ft | 23 kts | 180° |
| 2026-05-06 09:52 | 39.86926 | -104.68500 | 5390 ft | 22 kts | 180° |
| 2026-05-06 09:52 | 39.86785 | -104.68503 | 5392 ft | 18 kts | 181° |
| 2026-05-06 09:52 | 39.86664 | -104.68504 | 5396 ft | 17 kts | 180° |
| 2026-05-06 09:53 | 39.86549 | -104.68505 | 5395 ft | 16 kts | 180° |
| 2026-05-06 09:53 | 39.86441 | -104.68507 | 5399 ft | 14 kts | 181° |
| 2026-05-06 09:53 | 39.86324 | -104.68509 | 5394 ft | 22 kts | 180° |
| 2026-05-06 09:53 | 39.86157 | -104.68509 | 5388 ft | 26 kts | 180° |
| 2026-05-06 09:54 | 39.85972 | -104.68511 | 5389 ft | 28 kts | 181° |
| 2026-05-06 09:54 | 39.85770 | -104.68515 | 5385 ft | 29 kts | 181° |
| 2026-05-06 09:54 | 39.85699 | -104.68488 | 5381 ft | 8 kts | 130° |
| 2026-05-06 09:54 | 39.85688 | -104.68423 | 5382 ft | 8 kts | 93° |
| 2026-05-06 09:55 | 39.85686 | -104.68364 | 5387 ft | 6 kts | 91° |
| 2026-05-06 09:55 | 39.85686 | -104.68295 | 5389 ft | 12 kts | 90° |
| 2026-05-06 09:55 | 39.85693 | -104.68214 | 5384 ft | 2 kts | 51° |
| 2026-05-06 09:55 | 39.85727 | -104.68202 | 5385 ft | 14 kts | 9° |
| 2026-05-06 09:56 | 39.85768 | -104.68198 | 5388 ft | 0 kts | 5° |
| 2026-05-06 09:56 | 39.85758 | -104.68199 | 5382 ft | 2 kts | 5° |
| 2026-05-06 09:56 | 39.85742 | -104.68201 | 5384 ft | 2 kts | 5° |
| 2026-05-06 09:56 | 39.85726 | -104.68203 | 5385 ft | 2 kts | 5° |
| 2026-05-06 09:57 | 39.85710 | -104.68204 | 5385 ft | 2 kts | 5° |
| 2026-05-06 09:57 | 39.85693 | -104.68209 | 5381 ft | 3 kts | 37° |
| 2026-05-06 09:57 | 39.85684 | -104.68218 | 5387 ft | 0 kts | 62° |
| 2026-05-06 09:57 | 39.85683 | -104.68194 | 5385 ft | 7 kts | 105° |
| 2026-05-06 09:58 | 39.85670 | -104.68101 | 5388 ft | 11 kts | 91° |
| 2026-05-06 09:58 | 39.85670 | -104.67992 | 5387 ft | 15 kts | 90° |
| 2026-05-06 09:58 | 39.85668 | -104.67817 | 5386 ft | 21 kts | 90° |
| 2026-05-06 09:58 | 39.85666 | -104.67634 | 5386 ft | 20 kts | 91° |
| 2026-05-06 09:59 | 39.85665 | -104.67454 | 5387 ft | 19 kts | 90° |
| 2026-05-06 09:59 | 39.85665 | -104.67355 | 5388 ft | 8 kts | 90° |
| 2026-05-06 09:59 | 39.85665 | -104.67336 | 5387 ft | 0 kts | 90° |
| 2026-05-06 09:59 | 39.85675 | -104.67293 | 5387 ft | 6 kts | 53° |
| 2026-05-06 10:00 | 39.85698 | -104.67282 | 5380 ft | 3 kts | 12° |
| 2026-05-06 10:00 | 39.85731 | -104.67283 | 5385 ft | 5 kts | 356° |
| 2026-05-06 10:00 | 39.85753 | -104.67285 | 5385 ft | 2 kts | 1° |
| 2026-05-06 10:00 | 39.85782 | -104.67284 | 5386 ft | 3 kts | 1° |
| 2026-05-06 10:01 | 39.85794 | -104.67284 | 5382 ft | 0 kts | 1° |
| 2026-05-06 10:02 | 39.85796 | -104.67284 | 5382 ft | 0 kts | 360° |
| 2026-05-06 10:02 | 39.85801 | -104.67284 | 5379 ft | 0 kts | 360° |